createdAt,value
2018-05-03T00:00:54.030Z,0
2018-05-03T00:02:02.717Z,0
2018-05-03T00:03:11.322Z,0
2018-05-03T00:04:19.968Z,0
2018-05-03T00:05:28.608Z,0
2018-05-03T00:06:37.522Z,0
2018-05-03T00:07:46.156Z,0
2018-05-03T00:08:54.800Z,0
2018-05-03T00:10:03.446Z,0
2018-05-03T00:11:12.092Z,0
2018-05-03T00:12:20.735Z,0
2018-05-03T00:13:29.382Z,0
2018-05-03T00:14:38.025Z,0
2018-05-03T00:15:46.931Z,0
2018-05-03T00:16:55.580Z,0
2018-05-03T00:18:04.223Z,0
2018-05-03T00:19:13.134Z,0
2018-05-03T00:20:21.780Z,0
2018-05-03T00:21:30.695Z,0
2018-05-03T00:22:39.334Z,0
2018-05-03T00:23:48.509Z,0
2018-05-03T00:24:57.150Z,0
2018-05-03T00:26:05.795Z,0
2018-05-03T00:27:14.442Z,0
2018-05-03T00:28:23.077Z,0
2018-05-03T00:29:31.718Z,0
2018-05-03T00:30:40.360Z,0
2018-05-03T00:31:49.007Z,0
2018-05-03T00:32:57.648Z,0
2018-05-03T00:34:06.292Z,0
2018-05-03T00:35:15.200Z,0
2018-05-03T00:36:23.852Z,0
2018-05-03T00:37:32.497Z,0
2018-05-03T00:38:41.148Z,0
2018-05-03T00:39:49.780Z,0
2018-05-03T00:40:58.430Z,0
2018-05-03T00:42:07.070Z,0
2018-05-03T00:43:15.715Z,0
2018-05-03T00:44:24.351Z,0
2018-05-03T00:45:33.004Z,0
2018-05-03T00:46:41.646Z,0
2018-05-03T00:47:50.290Z,0
2018-05-03T00:48:59.218Z,0
2018-05-03T00:50:08.118Z,0
2018-05-03T00:51:16.757Z,0
2018-05-03T00:52:25.404Z,0
2018-05-03T00:53:34.315Z,0
2018-05-03T00:54:42.955Z,0
2018-05-03T00:55:51.597Z,0
2018-05-03T00:57:00.762Z,0
2018-05-03T00:58:09.410Z,0
2018-05-03T00:59:18.575Z,0
2018-05-03T01:00:27.219Z,0
2018-05-03T01:01:35.864Z,0
2018-05-03T01:02:44.508Z,0
2018-05-03T01:03:53.153Z,0
2018-05-03T01:05:01.797Z,0
2018-05-03T01:06:10.443Z,0
2018-05-03T01:07:19.088Z,0
2018-05-03T01:08:27.725Z,0
2018-05-03T01:09:36.369Z,0
2018-05-03T01:10:45.015Z,0
2018-05-03T01:11:53.929Z,0
2018-05-03T01:13:02.565Z,0
2018-05-03T01:14:11.468Z,0
2018-05-03T01:15:20.372Z,0
2018-05-03T01:16:29.019Z,0
2018-05-03T01:17:37.656Z,0
2018-05-03T01:18:46.301Z,0
2018-05-03T01:19:54.941Z,0
2018-05-03T01:21:03.588Z,0
2018-05-03T01:22:12.229Z,0
2018-05-03T01:23:21.131Z,0
2018-05-03T01:24:29.772Z,0
2018-05-03T01:25:38.413Z,0
2018-05-03T01:26:47.064Z,0
2018-05-03T01:27:55.703Z,0
2018-05-03T01:29:04.634Z,0
2018-05-03T01:30:13.250Z,0
2018-05-03T01:31:21.897Z,0
2018-05-03T01:32:30.541Z,0
2018-05-03T01:33:39.184Z,0
2018-05-03T01:34:47.822Z,0
2018-05-03T01:35:56.467Z,0
2018-05-03T01:37:05.107Z,0
2018-05-03T01:38:13.755Z,0
2018-05-03T01:39:22.392Z,0
2018-05-03T01:40:31.045Z,0
2018-05-03T01:41:40.216Z,0
2018-05-03T01:42:48.860Z,0
2018-05-03T01:43:57.505Z,0
2018-05-03T01:45:06.415Z,0
2018-05-03T01:46:15.056Z,0
2018-05-03T01:47:23.699Z,0
2018-05-03T01:48:32.344Z,0
2018-05-03T01:49:40.982Z,0
2018-05-03T01:50:49.622Z,0
2018-05-03T01:51:58.261Z,0
2018-05-03T01:53:06.909Z,0
2018-05-03T01:54:15.548Z,0
2018-05-03T01:55:24.195Z,0
2018-05-03T01:56:33.101Z,0
2018-05-03T01:57:42.010Z,0
2018-05-03T01:58:50.647Z,0
2018-05-03T01:59:59.294Z,0
2018-05-03T02:01:08.207Z,0
2018-05-03T02:02:16.850Z,0
2018-05-03T02:03:25.503Z,0
2018-05-03T02:04:34.408Z,0
2018-05-03T02:05:43.054Z,0
2018-05-03T02:06:51.687Z,0
2018-05-03T02:08:00.341Z,0
2018-05-03T02:09:08.982Z,0
2018-05-03T02:10:17.624Z,0
2018-05-03T02:11:26.259Z,0
2018-05-03T02:12:34.907Z,0
2018-05-03T02:13:43.807Z,0
2018-05-03T02:14:52.451Z,0
2018-05-03T02:16:01.353Z,0
2018-05-03T02:17:09.994Z,0
2018-05-03T02:18:18.641Z,0
2018-05-03T02:19:27.286Z,0
2018-05-03T02:20:36.191Z,0
2018-05-03T02:21:44.826Z,0
2018-05-03T02:22:53.472Z,0
2018-05-03T02:24:02.110Z,0
2018-05-03T02:25:10.762Z,0
2018-05-03T02:26:19.656Z,0
2018-05-03T02:27:28.570Z,0
2018-05-03T02:28:37.205Z,0
2018-05-03T02:29:45.870Z,0
2018-05-03T02:30:54.513Z,0
2018-05-03T02:32:03.692Z,0
2018-05-03T02:33:12.600Z,0
2018-05-03T02:34:21.247Z,0
2018-05-03T02:35:29.891Z,0
2018-05-03T02:36:38.531Z,0
2018-05-03T02:37:47.448Z,0
2018-05-03T02:38:56.351Z,0
2018-05-03T02:40:05.000Z,0
2018-05-03T02:41:13.909Z,0
2018-05-03T02:42:23.122Z,0
2018-05-03T02:43:32.022Z,0
2018-05-03T02:44:40.949Z,0
2018-05-03T02:45:49.588Z,0
2018-05-03T02:46:58.513Z,0
2018-05-03T02:48:07.684Z,0
2018-05-03T02:49:16.336Z,0
2018-05-03T02:50:24.987Z,0
2018-05-03T02:51:34.153Z,0
2018-05-03T02:52:43.063Z,0
2018-05-03T02:53:51.704Z,0
2018-05-03T02:55:00.615Z,0
2018-05-03T02:56:09.265Z,0
2018-05-03T02:57:17.907Z,0
2018-05-03T02:58:26.542Z,0
2018-05-03T02:59:35.459Z,0
2018-05-03T03:00:44.103Z,0
2018-05-03T03:01:52.758Z,0
2018-05-03T03:03:01.676Z,0
2018-05-03T03:04:10.599Z,0
2018-05-03T03:05:19.244Z,0
2018-05-03T03:06:28.433Z,0
2018-05-03T03:07:37.068Z,0
2018-05-03T03:08:45.718Z,0
2018-05-03T03:09:54.363Z,0
2018-05-03T03:11:03.012Z,0
2018-05-03T03:12:11.916Z,0
2018-05-03T03:13:20.557Z,0
2018-05-03T03:14:29.198Z,0
2018-05-03T03:15:37.837Z,0
2018-05-03T03:16:46.757Z,0
2018-05-03T03:17:55.654Z,0
2018-05-03T03:19:04.580Z,0
2018-05-03T03:20:13.479Z,0
2018-05-03T03:21:22.143Z,0
2018-05-03T03:22:30.769Z,0
2018-05-03T03:23:39.416Z,0
2018-05-03T03:24:48.053Z,0
2018-05-03T03:25:56.702Z,0
2018-05-03T03:27:05.340Z,0
2018-05-03T03:28:13.986Z,0
2018-05-03T03:29:22.619Z,0
2018-05-03T03:30:31.526Z,0
2018-05-03T03:31:40.443Z,0
2018-05-03T03:32:49.086Z,4
2018-05-03T03:33:57.744Z,0
2018-05-03T03:35:06.913Z,4
2018-05-03T03:36:15.546Z,4
2018-05-03T03:37:24.183Z,4
2018-05-03T03:38:32.835Z,4
2018-05-03T03:39:41.734Z,4
2018-05-03T03:40:50.646Z,8
2018-05-03T03:41:59.282Z,4
2018-05-03T03:43:07.931Z,8
2018-05-03T03:44:16.565Z,8
2018-05-03T03:45:25.210Z,12
2018-05-03T03:46:33.854Z,12
2018-05-03T03:47:42.773Z,16
2018-05-03T03:48:51.414Z,16
2018-05-03T03:50:00.051Z,16
2018-05-03T03:51:08.692Z,20
2018-05-03T03:52:17.332Z,20
2018-05-03T03:53:25.981Z,28
2018-05-03T03:54:34.629Z,28
2018-05-03T03:55:43.285Z,32
2018-05-03T03:56:52.193Z,36
2018-05-03T03:58:01.103Z,44
2018-05-03T03:59:09.844Z,48
2018-05-03T04:00:18.388Z,56
2018-05-03T04:01:27.025Z,68
2018-05-03T04:02:35.672Z,76
2018-05-03T04:03:44.310Z,84
2018-05-03T04:04:52.956Z,96
2018-05-03T04:06:01.858Z,108
2018-05-03T04:07:10.500Z,120
2018-05-03T04:08:19.147Z,128
2018-05-03T04:09:27.788Z,144
2018-05-03T04:10:36.435Z,152
2018-05-03T04:11:45.072Z,164
2018-05-03T04:12:53.714Z,176
2018-05-03T04:14:02.357Z,188
2018-05-03T04:15:11.529Z,204
2018-05-03T04:16:20.699Z,220
2018-05-03T04:17:29.341Z,232
2018-05-03T04:18:37.985Z,244
2018-05-03T04:19:46.631Z,264
2018-05-03T04:20:55.269Z,276
2018-05-03T04:22:03.967Z,296
2018-05-03T04:23:12.559Z,312
2018-05-03T04:24:21.203Z,332
2018-05-03T04:25:30.117Z,348
2018-05-03T04:26:38.758Z,368
2018-05-03T04:27:47.396Z,384
2018-05-03T04:28:56.039Z,408
2018-05-03T04:30:04.959Z,432
2018-05-03T04:31:13.610Z,452
2018-05-03T04:32:22.246Z,476
2018-05-03T04:33:30.885Z,500
2018-05-03T04:34:39.834Z,528
2018-05-03T04:35:48.435Z,552
2018-05-03T04:36:57.081Z,572
2018-05-03T04:38:05.716Z,604
2018-05-03T04:39:14.363Z,632
2018-05-03T04:40:23.002Z,656
2018-05-03T04:41:31.650Z,688
2018-05-03T04:42:40.300Z,720
2018-05-03T04:43:48.943Z,752
2018-05-03T04:44:57.585Z,776
2018-05-03T04:46:06.233Z,816
2018-05-03T04:47:15.141Z,844
2018-05-03T04:48:23.777Z,860
2018-05-03T04:49:32.690Z,872
2018-05-03T04:50:41.331Z,908
2018-05-03T04:51:49.977Z,936
2018-05-03T04:52:58.617Z,972
2018-05-03T04:54:07.272Z,1000
2018-05-03T04:55:15.907Z,1020
2018-05-03T04:56:24.541Z,1024
2018-05-03T04:57:33.189Z,1060
2018-05-03T04:58:41.828Z,1096
2018-05-03T04:59:50.471Z,1128
2018-05-03T05:00:59.107Z,1156
2018-05-03T05:02:07.754Z,1204
2018-05-03T05:03:16.394Z,1240
2018-05-03T05:04:25.041Z,1280
2018-05-03T05:05:33.688Z,1300
2018-05-03T05:06:42.326Z,1324
2018-05-03T05:07:50.970Z,1360
2018-05-03T05:08:59.613Z,1392
2018-05-03T05:10:08.266Z,1412
2018-05-03T05:11:16.905Z,1420
2018-05-03T05:12:25.544Z,1468
2018-05-03T05:13:34.186Z,1524
2018-05-03T05:14:42.834Z,1572
2018-05-03T05:15:51.471Z,1612
2018-05-03T05:17:00.113Z,1672
2018-05-03T05:18:08.754Z,1708
2018-05-03T05:19:17.399Z,1764
2018-05-03T05:20:26.041Z,1824
2018-05-03T05:21:34.681Z,1876
2018-05-03T05:22:45.880Z,1916
2018-05-03T05:23:54.521Z,1960
2018-05-03T05:25:03.232Z,1988
2018-05-03T05:26:11.807Z,2040
2018-05-03T05:27:20.448Z,2096
2018-05-03T05:28:29.087Z,2124
2018-05-03T05:29:37.732Z,2184
2018-05-03T05:30:46.405Z,2212
2018-05-03T05:31:55.016Z,2260
2018-05-03T05:33:03.662Z,2288
2018-05-03T05:34:12.306Z,2352
2018-05-03T05:35:20.949Z,2432
2018-05-03T05:36:29.852Z,2472
2018-05-03T05:37:38.489Z,2492
2018-05-03T05:38:47.207Z,2552
2018-05-03T05:39:55.777Z,2576
2018-05-03T05:41:04.423Z,2600
2018-05-03T05:42:13.331Z,2636
2018-05-03T05:43:21.969Z,2696
2018-05-03T05:44:30.609Z,2776
2018-05-03T05:45:39.252Z,2876
2018-05-03T05:46:47.899Z,2856
2018-05-03T05:47:56.544Z,2896
2018-05-03T05:49:05.452Z,2944
2018-05-03T05:50:14.094Z,2972
2018-05-03T05:51:22.826Z,3052
2018-05-03T05:52:31.381Z,3092
2018-05-03T05:53:40.030Z,3108
2018-05-03T05:54:48.938Z,3152
2018-05-03T05:55:57.588Z,3096
2018-05-03T05:57:06.228Z,3164
2018-05-03T05:58:14.867Z,3220
2018-05-03T05:59:23.508Z,3252
2018-05-03T06:00:32.147Z,3388
2018-05-03T06:01:40.799Z,3500
2018-05-03T06:02:49.441Z,3412
2018-05-03T06:03:58.083Z,3344
2018-05-03T06:05:06.719Z,3360
2018-05-03T06:06:15.371Z,3356
2018-05-03T06:07:24.278Z,3388
2018-05-03T06:08:32.926Z,3476
2018-05-03T06:09:41.559Z,3424
2018-05-03T06:10:50.212Z,3564
2018-05-03T06:11:58.861Z,3500
2018-05-03T06:13:07.768Z,3500
2018-05-03T06:14:16.401Z,3440
2018-05-03T06:15:25.047Z,3468
2018-05-03T06:16:33.693Z,3684
2018-05-03T06:17:42.337Z,3808
2018-05-03T06:18:51.249Z,3644
2018-05-03T06:19:59.883Z,3712
2018-05-03T06:21:08.531Z,3792
2018-05-03T06:22:17.440Z,3760
2018-05-03T06:23:26.092Z,3768
2018-05-03T06:24:34.726Z,3736
2018-05-03T06:25:43.642Z,3912
2018-05-03T06:26:52.555Z,3856
2018-05-03T06:28:01.207Z,3756
2018-05-03T06:29:09.841Z,3724
2018-05-03T06:30:18.750Z,3568
2018-05-03T06:31:27.389Z,3484
2018-05-03T06:32:36.042Z,3516
2018-05-03T06:33:44.955Z,3540
2018-05-03T06:34:53.587Z,3600
2018-05-03T06:36:02.224Z,3832
2018-05-03T06:37:10.864Z,3968
2018-05-03T06:38:19.786Z,4116
2018-05-03T06:39:28.426Z,3632
2018-05-03T06:40:37.074Z,3648
2018-05-03T06:41:45.708Z,3756
2018-05-03T06:42:54.360Z,3672
2018-05-03T06:44:03.024Z,3576
2018-05-03T06:45:11.690Z,3644
2018-05-03T06:46:20.309Z,3832
2018-05-03T06:47:29.236Z,3724
2018-05-03T06:48:37.877Z,3872
2018-05-03T06:49:46.528Z,3668
2018-05-03T06:50:55.167Z,4068
2018-05-03T06:52:04.074Z,4336
2018-05-03T06:53:12.988Z,4316
2018-05-03T06:54:21.897Z,4328
2018-05-03T06:55:30.542Z,4532
2018-05-03T06:56:39.181Z,4100
2018-05-03T06:57:47.823Z,4080
2018-05-03T06:58:56.465Z,4024
2018-05-03T07:00:05.118Z,3868
2018-05-03T07:01:13.761Z,4288
2018-05-03T07:02:22.412Z,4252
2018-05-03T07:03:31.320Z,4388
2018-05-03T07:04:39.969Z,4404
2018-05-03T07:05:48.876Z,4492
2018-05-03T07:06:57.521Z,4396
2018-05-03T07:08:06.166Z,4368
2018-05-03T07:09:14.815Z,4500
2018-05-03T07:10:23.744Z,4072
2018-05-03T07:11:32.407Z,3920
2018-05-03T07:12:41.093Z,4196
2018-05-03T07:13:49.787Z,4104
2018-05-03T07:14:58.595Z,4180
2018-05-03T07:16:07.238Z,4516
2018-05-03T07:17:16.147Z,4724
2018-05-03T07:18:24.791Z,4764
2018-05-03T07:19:33.480Z,4636
2018-05-03T07:20:42.093Z,4592
2018-05-03T07:21:50.746Z,4708
2018-05-03T07:22:59.483Z,4680
2018-05-03T07:24:08.579Z,4340
2018-05-03T07:25:17.261Z,4068
2018-05-03T07:26:25.927Z,4556
2018-05-03T07:27:34.571Z,4696
2018-05-03T07:28:43.425Z,4724
2018-05-03T07:29:52.358Z,4556
2018-05-03T07:31:01.044Z,4624
2018-05-03T07:32:09.693Z,4472
2018-05-03T07:33:18.334Z,4352
2018-05-03T07:34:26.980Z,4176
2018-05-03T07:35:35.624Z,4296
2018-05-03T07:36:44.274Z,4244
2018-05-03T07:37:52.913Z,4496
2018-05-03T07:39:01.559Z,4024
2018-05-03T07:40:10.201Z,3832
2018-05-03T07:41:18.854Z,3580
2018-05-03T07:42:27.497Z,3648
2018-05-03T07:43:36.144Z,3684
2018-05-03T07:44:44.792Z,4144
2018-05-03T07:45:53.710Z,3984
2018-05-03T07:47:02.351Z,3956
2018-05-03T07:48:10.997Z,4384
2018-05-03T07:49:19.637Z,4020
2018-05-03T07:50:28.281Z,3856
2018-05-03T07:51:36.928Z,4024
2018-05-03T07:52:45.836Z,3956
2018-05-03T07:53:54.486Z,3960
2018-05-03T07:55:03.383Z,4192
2018-05-03T07:56:12.035Z,4204
2018-05-03T07:57:20.675Z,3964
2018-05-03T07:58:29.325Z,3756
2018-05-03T07:59:37.962Z,3188
2018-05-03T08:00:46.624Z,3228
2018-05-03T08:01:55.266Z,3352
2018-05-03T08:03:04.179Z,3096
2018-05-03T08:04:12.815Z,3372
2018-05-03T08:05:21.466Z,3080
2018-05-03T08:06:30.113Z,2940
2018-05-03T08:07:38.770Z,2760
2018-05-03T08:08:47.420Z,2872
2018-05-03T08:09:56.059Z,2920
2018-05-03T08:11:04.706Z,2852
2018-05-03T08:12:13.351Z,3244
2018-05-03T08:13:22.008Z,3332
2018-05-03T08:14:30.639Z,3416
2018-05-03T08:15:39.288Z,3292
2018-05-03T08:16:47.929Z,3548
2018-05-03T08:17:56.584Z,3388
2018-05-03T08:19:05.225Z,3600
2018-05-03T08:20:13.867Z,3072
2018-05-03T08:21:22.775Z,2752
2018-05-03T08:22:31.429Z,2716
2018-05-03T08:23:40.066Z,2984
2018-05-03T08:24:48.705Z,3640
2018-05-03T08:25:57.347Z,4004
2018-05-03T08:27:05.993Z,3896
2018-05-03T08:28:14.646Z,3796
2018-05-03T08:29:23.288Z,3632
2018-05-03T08:30:31.939Z,3624
2018-05-03T08:31:40.586Z,3948
2018-05-03T08:32:49.231Z,3924
2018-05-03T08:33:57.872Z,3692
2018-05-03T08:35:06.789Z,2816
2018-05-03T08:36:15.691Z,2688
2018-05-03T08:37:24.349Z,3224
2018-05-03T08:38:32.991Z,2964
2018-05-03T08:39:41.642Z,3012
2018-05-03T08:40:50.535Z,3376
2018-05-03T08:41:59.177Z,3524
2018-05-03T08:43:07.827Z,3692
2018-05-03T08:44:16.476Z,3432
2018-05-03T08:45:25.119Z,3268
2018-05-03T08:46:33.754Z,3424
2018-05-03T08:47:42.404Z,3648
2018-05-03T08:48:51.045Z,3164
2018-05-03T08:49:59.764Z,2984
2018-05-03T08:51:08.347Z,2888
2018-05-03T08:52:16.987Z,3148
2018-05-03T08:53:25.636Z,3692
2018-05-03T08:54:34.273Z,4092
2018-05-03T08:55:43.347Z,3844
2018-05-03T08:56:51.937Z,3932
2018-05-03T08:58:00.584Z,4552
2018-05-03T08:59:09.215Z,4180
2018-05-03T09:00:17.862Z,4500
2018-05-03T09:01:26.813Z,4472
2018-05-03T09:02:35.462Z,4176
2018-05-03T09:03:44.111Z,4008
2018-05-03T09:04:52.748Z,4004
2018-05-03T09:06:01.691Z,4288
2018-05-03T09:07:10.327Z,4056
2018-05-03T09:08:19.253Z,3732
2018-05-03T09:09:27.889Z,3232
2018-05-03T09:10:36.538Z,3252
2018-05-03T09:11:45.442Z,3336
2018-05-03T09:12:54.097Z,3024
2018-05-03T09:14:02.737Z,3052
2018-05-03T09:15:11.384Z,3208
2018-05-03T09:16:20.031Z,3316
2018-05-03T09:17:28.687Z,3720
2018-05-03T09:18:37.333Z,4072
2018-05-03T09:19:45.974Z,4072
2018-05-03T09:20:54.884Z,4000
2018-05-03T09:22:03.790Z,3532
2018-05-03T09:23:12.450Z,2956
2018-05-03T09:24:21.091Z,2372
2018-05-03T09:25:29.740Z,2416
2018-05-03T09:26:38.395Z,2472
2018-05-03T09:27:47.055Z,2512
2018-05-03T09:28:55.692Z,2692
2018-05-03T09:30:04.351Z,3060
2018-05-03T09:31:13.516Z,3104
2018-05-03T09:32:22.169Z,3284
2018-05-03T09:33:30.815Z,3232
2018-05-03T09:34:39.723Z,3272
2018-05-03T09:35:48.361Z,3600
2018-05-03T09:36:57.009Z,4304
2018-05-03T09:38:05.661Z,4260
2018-05-03T09:39:14.379Z,4520
2018-05-03T09:40:23.338Z,4252
2018-05-03T09:41:31.975Z,3448
2018-05-03T09:42:40.629Z,3136
2018-05-03T09:43:49.272Z,3992
2018-05-03T09:44:58.476Z,3804
2018-05-03T09:46:07.169Z,4336
2018-05-03T09:47:15.826Z,4160
2018-05-03T09:48:24.467Z,4372
2018-05-03T09:49:33.120Z,3996
2018-05-03T09:50:41.794Z,3836
2018-05-03T09:51:50.444Z,4080
2018-05-03T09:52:59.087Z,4004
2018-05-03T09:54:07.736Z,4256
2018-05-03T09:55:16.378Z,4224
2018-05-03T09:56:25.558Z,3908
2018-05-03T09:57:34.472Z,3872
2018-05-03T09:58:43.115Z,3548
2018-05-03T09:59:52.007Z,4048
2018-05-03T10:01:00.713Z,3600
2018-05-03T10:02:09.892Z,4332
2018-05-03T10:03:18.531Z,3980
2018-05-03T10:04:27.466Z,3540
2018-05-03T10:05:36.115Z,3972
2018-05-03T10:06:44.761Z,4068
2018-05-03T10:07:53.403Z,3728
2018-05-03T10:09:02.054Z,4028
2018-05-03T10:10:10.700Z,4560
2018-05-03T10:11:19.619Z,4628
2018-05-03T10:12:28.260Z,4032
2018-05-03T10:13:36.912Z,3900
2018-05-03T10:14:45.561Z,4528
2018-05-03T10:15:54.210Z,4412
2018-05-03T10:17:02.859Z,4516
2018-05-03T10:18:11.504Z,4272
2018-05-03T10:19:20.145Z,4100
2018-05-03T10:20:29.065Z,3972
2018-05-03T10:21:37.715Z,4264
2018-05-03T10:22:46.361Z,4256
2018-05-03T10:23:55.006Z,3856
2018-05-03T10:25:03.654Z,3248
2018-05-03T10:26:12.306Z,3912
2018-05-03T10:27:20.948Z,3976
2018-05-03T10:28:29.596Z,4344
2018-05-03T10:29:38.745Z,4112
2018-05-03T10:30:47.729Z,4504
2018-05-03T10:31:56.513Z,4072
2018-05-03T10:33:05.423Z,4556
2018-05-03T10:34:14.070Z,4044
2018-05-03T10:35:22.715Z,4448
2018-05-03T10:36:31.378Z,4836
2018-05-03T10:37:40.013Z,4988
2018-05-03T10:38:48.737Z,5036
2018-05-03T10:39:57.650Z,4640
2018-05-03T10:41:06.565Z,4412
2018-05-03T10:42:15.222Z,4472
2018-05-03T10:43:24.222Z,3800
2018-05-03T10:44:32.864Z,4964
2018-05-03T10:45:41.515Z,5032
2018-05-03T10:46:50.420Z,4476
2018-05-03T10:47:59.065Z,4776
2018-05-03T10:49:07.758Z,5224
2018-05-03T10:50:16.646Z,5584
2018-05-03T10:51:25.288Z,4960
2018-05-03T10:52:33.935Z,4120
2018-05-03T10:53:42.585Z,4008
2018-05-03T10:54:51.299Z,4044
2018-05-03T10:55:59.943Z,4640
2018-05-03T10:57:08.868Z,5908
2018-05-03T10:58:17.512Z,6180
2018-05-03T10:59:26.430Z,4676
2018-05-03T11:00:35.074Z,4508
2018-05-03T11:01:43.727Z,5508
2018-05-03T11:02:52.365Z,5304
2018-05-03T11:04:01.023Z,4324
2018-05-03T11:05:09.744Z,4292
2018-05-03T11:06:18.318Z,4236
2018-05-03T11:07:26.956Z,4264
2018-05-03T11:08:35.611Z,4164
2018-05-03T11:09:44.262Z,3912
2018-05-03T11:10:53.216Z,3576
2018-05-03T11:12:01.862Z,4252
2018-05-03T11:13:10.503Z,4940
2018-05-03T11:14:19.154Z,5036
2018-05-03T11:15:28.178Z,4780
2018-05-03T11:16:37.168Z,4068
2018-05-03T11:17:45.736Z,4580
2018-05-03T11:18:54.386Z,3888
2018-05-03T11:20:03.028Z,3724
2018-05-03T11:21:11.693Z,4356
2018-05-03T11:22:20.332Z,4032
2018-05-03T11:23:28.984Z,3760
2018-05-03T11:24:37.628Z,3640
2018-05-03T11:25:46.286Z,3516
2018-05-03T11:26:55.197Z,5112
2018-05-03T11:28:03.839Z,4484
2018-05-03T11:29:12.487Z,4236
2018-05-03T11:30:21.130Z,3840
2018-05-03T11:31:29.806Z,4152
2018-05-03T11:32:38.433Z,4392
2018-05-03T11:33:47.084Z,4896
2018-05-03T11:34:55.725Z,4396
2018-05-03T11:36:04.385Z,4404
2018-05-03T11:37:13.023Z,3244
2018-05-03T11:38:21.676Z,4356
2018-05-03T11:39:30.579Z,4620
2018-05-03T11:40:39.236Z,5064
2018-05-03T11:41:47.882Z,4276
2018-05-03T11:42:56.532Z,4016
2018-05-03T11:44:05.172Z,3896
2018-05-03T11:45:14.089Z,3712
2018-05-03T11:46:22.744Z,3712
2018-05-03T11:47:31.462Z,3896
2018-05-03T11:48:40.047Z,3620
2018-05-03T11:49:48.951Z,3676
2018-05-03T11:50:57.596Z,3600
2018-05-03T11:52:06.242Z,3524
2018-05-03T11:53:15.457Z,3396
2018-05-03T11:54:24.099Z,3336
2018-05-03T11:55:32.749Z,3380
2018-05-03T11:56:41.401Z,4384
2018-05-03T11:57:50.050Z,4236
2018-05-03T11:58:58.694Z,4172
2018-05-03T12:00:07.346Z,5440
2018-05-03T12:01:15.991Z,5268
2018-05-03T12:02:24.721Z,5144
2018-05-03T12:03:33.569Z,4744
2018-05-03T12:04:42.217Z,4740
2018-05-03T12:05:51.125Z,4388
2018-05-03T12:07:00.313Z,5180
2018-05-03T12:08:08.964Z,4492
2018-05-03T12:09:17.613Z,4244
2018-05-03T12:10:26.260Z,4224
2018-05-03T12:11:35.169Z,4692
2018-05-03T12:12:43.818Z,4272
2018-05-03T12:13:52.731Z,3816
2018-05-03T12:15:01.381Z,3876
2018-05-03T12:16:10.025Z,3856
2018-05-03T12:17:18.941Z,4516
2018-05-03T12:18:27.587Z,5468
2018-05-03T12:19:36.235Z,5424
2018-05-03T12:20:44.879Z,5728
2018-05-03T12:21:53.531Z,5484
2018-05-03T12:23:02.187Z,5408
2018-05-03T12:24:10.836Z,4912
2018-05-03T12:25:19.487Z,4680
2018-05-03T12:26:28.131Z,4524
2018-05-03T12:27:36.778Z,4944
2018-05-03T12:28:45.428Z,4856
2018-05-03T12:29:54.077Z,5564
2018-05-03T12:31:02.721Z,5124
2018-05-03T12:32:11.368Z,5020
2018-05-03T12:33:20.016Z,4944
2018-05-03T12:34:28.672Z,4960
2018-05-03T12:35:37.315Z,5156
2018-05-03T12:36:45.963Z,5432
2018-05-03T12:37:54.611Z,5228
2018-05-03T12:39:03.262Z,4760
2018-05-03T12:40:12.174Z,5112
2018-05-03T12:41:20.820Z,4976
2018-05-03T12:42:29.471Z,5000
2018-05-03T12:43:38.388Z,5256
2018-05-03T12:44:47.042Z,5724
2018-05-03T12:45:55.948Z,5228
2018-05-03T12:47:04.598Z,5064
2018-05-03T12:48:13.522Z,5116
2018-05-03T12:49:22.165Z,4996
2018-05-03T12:50:31.097Z,5364
2018-05-03T12:51:39.785Z,5500
2018-05-03T12:52:48.385Z,5224
2018-05-03T12:53:57.028Z,4412
2018-05-03T12:55:05.689Z,4408
2018-05-03T12:56:14.331Z,4544
2018-05-03T12:57:22.984Z,5476
2018-05-03T12:58:31.896Z,5416
2018-05-03T12:59:40.544Z,4968
2018-05-03T13:00:49.803Z,4884
2018-05-03T13:01:58.386Z,5020
2018-05-03T13:03:07.040Z,5064
2018-05-03T13:04:15.952Z,5432
2018-05-03T13:05:24.599Z,5520
2018-05-03T13:06:33.246Z,6092
2018-05-03T13:07:41.896Z,6212
2018-05-03T13:08:50.548Z,6052
2018-05-03T13:09:59.195Z,5844
2018-05-03T13:11:07.838Z,6336
2018-05-03T13:12:16.759Z,6576
2018-05-03T13:13:25.407Z,6508
2018-05-03T13:14:34.321Z,6124
2018-05-03T13:15:42.965Z,5876
2018-05-03T13:16:51.619Z,5988
2018-05-03T13:18:00.265Z,6188
2018-05-03T13:19:08.917Z,6120
2018-05-03T13:20:17.585Z,5952
2018-05-03T13:21:26.212Z,5324
2018-05-03T13:22:34.862Z,4552
2018-05-03T13:23:43.510Z,3320
2018-05-03T13:24:52.165Z,3072
2018-05-03T13:26:01.072Z,2932
2018-05-03T13:27:09.720Z,2816
2018-05-03T13:28:18.369Z,2784
2018-05-03T13:29:27.288Z,2924
2018-05-03T13:30:35.932Z,3080
2018-05-03T13:31:44.587Z,3360
2018-05-03T13:32:53.243Z,3580
2018-05-03T13:34:01.890Z,3928
2018-05-03T13:35:10.536Z,4148
2018-05-03T13:36:19.183Z,5008
2018-05-03T13:37:27.828Z,5220
2018-05-03T13:38:36.474Z,4840
2018-05-03T13:39:45.125Z,4880
2018-05-03T13:40:53.775Z,4912
2018-05-03T13:42:02.428Z,4968
2018-05-03T13:43:11.119Z,5132
2018-05-03T13:44:20.116Z,5808
2018-05-03T13:45:28.762Z,5976
2018-05-03T13:46:37.416Z,6168
2018-05-03T13:47:46.056Z,5568
2018-05-03T13:48:54.715Z,5032
2018-05-03T13:50:03.362Z,4780
2018-05-03T13:51:12.010Z,4632
2018-05-03T13:52:20.927Z,4520
2018-05-03T13:53:29.734Z,4796
2018-05-03T13:54:38.227Z,5192
2018-05-03T13:55:46.880Z,6672
2018-05-03T13:56:55.794Z,6112
2018-05-03T13:58:04.432Z,5304
2018-05-03T13:59:13.086Z,4312
2018-05-03T14:00:21.732Z,4036
2018-05-03T14:01:30.388Z,4004
2018-05-03T14:02:39.032Z,4304
2018-05-03T14:03:47.947Z,4544
2018-05-03T14:04:56.589Z,5044
2018-05-03T14:06:05.245Z,5372
2018-05-03T14:07:14.098Z,5484
2018-05-03T14:08:22.541Z,5540
2018-05-03T14:09:31.448Z,5532
2018-05-03T14:10:40.108Z,5516
2018-05-03T14:11:48.756Z,5468
2018-05-03T14:12:57.451Z,5480
2018-05-03T14:14:06.381Z,5248
2018-05-03T14:15:15.288Z,4920
2018-05-03T14:16:23.946Z,4384
2018-05-03T14:17:32.591Z,3444
2018-05-03T14:18:41.245Z,3236
2018-05-03T14:19:49.890Z,3012
2018-05-03T14:20:58.603Z,3032
2018-05-03T14:22:07.470Z,3748
2018-05-03T14:23:16.122Z,4312
2018-05-03T14:24:24.761Z,4604
2018-05-03T14:25:33.423Z,4756
2018-05-03T14:26:42.069Z,4788
2018-05-03T14:27:50.718Z,4772
2018-05-03T14:28:59.356Z,4780
2018-05-03T14:30:08.288Z,4384
2018-05-03T14:31:16.941Z,4224
2018-05-03T14:32:25.592Z,4284
2018-05-03T14:33:34.243Z,4236
2018-05-03T14:34:42.883Z,4212
2018-05-03T14:35:51.540Z,3736
2018-05-03T14:37:00.186Z,3856
2018-05-03T14:38:08.845Z,3844
2018-05-03T14:39:17.488Z,3784
2018-05-03T14:40:26.141Z,3800
2018-05-03T14:41:34.788Z,3944
2018-05-03T14:42:43.444Z,3824
2018-05-03T14:43:52.092Z,3748
2018-05-03T14:45:01.008Z,3932
2018-05-03T14:46:09.655Z,3972
2018-05-03T14:47:18.313Z,3912
2018-05-03T14:48:27.301Z,3876
2018-05-03T14:49:35.952Z,3912
2018-05-03T14:50:44.598Z,3792
2018-05-03T14:51:53.247Z,3596
2018-05-03T14:53:01.900Z,3588
2018-05-03T14:54:10.554Z,3660
2018-05-03T14:55:19.275Z,3712
2018-05-03T14:56:27.837Z,3820
2018-05-03T14:57:36.490Z,4048
2018-05-03T14:58:45.407Z,4284
2018-05-03T14:59:54.067Z,4428
2018-05-03T15:01:02.776Z,4496
2018-05-03T15:02:11.351Z,4232
2018-05-03T15:03:19.999Z,4368
2018-05-03T15:04:28.650Z,4272
2018-05-03T15:05:37.292Z,4376
2018-05-03T15:06:45.945Z,4628
2018-05-03T15:07:54.589Z,4948
2018-05-03T15:09:03.246Z,5184
2018-05-03T15:10:12.426Z,5348
2018-05-03T15:11:21.073Z,5392
2018-05-03T15:12:29.721Z,5340
2018-05-03T15:13:38.373Z,5264
2018-05-03T15:14:47.027Z,4944
2018-05-03T15:15:55.931Z,4768
2018-05-03T15:17:04.584Z,4628
2018-05-03T15:18:13.305Z,4400
2018-05-03T15:19:21.884Z,4304
2018-05-03T15:20:30.533Z,4244
2018-05-03T15:21:39.186Z,4120
2018-05-03T15:22:47.833Z,4200
2018-05-03T15:23:56.486Z,4292
2018-05-03T15:25:05.135Z,4372
2018-05-03T15:26:13.785Z,4520
2018-05-03T15:27:22.431Z,4648
2018-05-03T15:28:31.078Z,4720
2018-05-03T15:29:39.993Z,4632
2018-05-03T15:30:48.646Z,4528
2018-05-03T15:31:57.295Z,4468
2018-05-03T15:33:05.940Z,4512
2018-05-03T15:34:14.594Z,4516
2018-05-03T15:35:23.515Z,4372
2018-05-03T15:36:32.163Z,4252
2018-05-03T15:37:40.807Z,4248
2018-05-03T15:38:49.461Z,4176
2018-05-03T15:39:58.109Z,4108